sensor_id;sensor_type;location;lat;lon;timestamp;temperature;humidity
44833;DHT22;30569;51.252;9.830;2023-04-24T00:06:27;10.80;99.90
44833;DHT22;30569;51.252;9.830;2023-04-24T00:09:04;10.80;99.90
44833;DHT22;30569;51.252;9.830;2023-04-24T00:11:30;10.70;99.90
44833;DHT22;30569;51.252;9.830;2023-04-24T00:13:56;10.50;99.90
44833;DHT22;30569;51.252;9.830;2023-04-24T00:16:22;10.70;99.90
44833;DHT22;30569;51.252;9.830;2023-04-24T00:21:15;10.70;99.90
44833;DHT22;30569;51.252;9.830;2023-04-24T00:23:43;10.60;99.90
44833;DHT22;30569;51.252;9.830;2023-04-24T00:26:09;10.60;99.90
44833;DHT22;30569;51.252;9.830;2023-04-24T00:33:27;10.80;99.90
44833;DHT22;30569;51.252;9.830;2023-04-24T00:38:18;10.60;99.90
44833;DHT22;30569;51.252;9.830;2023-04-24T00:40:44;10.80;99.90
44833;DHT22;30569;51.252;9.830;2023-04-24T00:43:10;10.60;99.90
44833;DHT22;30569;51.252;9.830;2023-04-24T00:45:36;10.50;99.90
44833;DHT22;30569;51.252;9.830;2023-04-24T00:50:28;10.40;99.90
44833;DHT22;30569;51.252;9.830;2023-04-24T00:52:54;10.40;99.90
44833;DHT22;30569;51.252;9.830;2023-04-24T00:55:20;10.30;99.90
44833;DHT22;30569;51.252;9.830;2023-04-24T01:00:13;10.20;99.90
44833;DHT22;30569;51.252;9.830;2023-04-24T01:02:40;10.00;99.90
44833;DHT22;30569;51.252;9.830;2023-04-24T01:07:37;9.80;99.90
44833;DHT22;30569;51.252;9.830;2023-04-24T01:10:03;10.00;99.90
44833;DHT22;30569;51.252;9.830;2023-04-24T01:14:56;9.90;99.90
44833;DHT22;30569;51.252;9.830;2023-04-24T01:17:22;10.00;99.90
44833;DHT22;30569;51.252;9.830;2023-04-24T01:19:47;9.80;99.90
44833;DHT22;30569;51.252;9.830;2023-04-24T01:22:14;9.90;99.90
44833;DHT22;30569;51.252;9.830;2023-04-24T01:24:40;9.80;99.90
44833;DHT22;30569;51.252;9.830;2023-04-24T01:29:32;9.80;99.90
44833;DHT22;30569;51.252;9.830;2023-04-24T01:31:59;9.90;99.90
44833;DHT22;30569;51.252;9.830;2023-04-24T01:34:24;10.10;99.90
44833;DHT22;30569;51.252;9.830;2023-04-24T01:36:50;10.60;99.90
44833;DHT22;30569;51.252;9.830;2023-04-24T01:39:16;11.10;99.90
44833;DHT22;30569;51.252;9.830;2023-04-24T01:41:42;11.20;99.90
44833;DHT22;30569;51.252;9.830;2023-04-24T01:44:07;11.10;99.90
44833;DHT22;30569;51.252;9.830;2023-04-24T01:46:33;11.10;99.90
44833;DHT22;30569;51.252;9.830;2023-04-24T01:51:26;11.10;99.90
44833;DHT22;30569;51.252;9.830;2023-04-24T01:53:52;11.20;99.90
44833;DHT22;30569;51.252;9.830;2023-04-24T01:56:22;11.20;99.90
44833;DHT22;30569;51.252;9.830;2023-04-24T01:58:49;10.90;99.90
44833;DHT22;30569;51.252;9.830;2023-04-24T02:01:18;10.70;99.90
44833;DHT22;30569;51.252;9.830;2023-04-24T02:06:10;11.00;99.90
44833;DHT22;30569;51.252;9.830;2023-04-24T02:08:36;10.80;99.90
44833;DHT22;30569;51.252;9.830;2023-04-24T02:11:01;10.60;99.90
44833;DHT22;30569;51.252;9.830;2023-04-24T02:13:27;10.10;99.90
44833;DHT22;30569;51.252;9.830;2023-04-24T02:15:53;10.00;99.90
44833;DHT22;30569;51.252;9.830;2023-04-24T02:18:19;9.90;99.90
44833;DHT22;30569;51.252;9.830;2023-04-24T02:23:11;10.10;99.90
44833;DHT22;30569;51.252;9.830;2023-04-24T02:28:02;10.50;99.90
44833;DHT22;30569;51.252;9.830;2023-04-24T02:30:28;10.10;99.90
44833;DHT22;30569;51.252;9.830;2023-04-24T02:32:54;10.00;99.90
44833;DHT22;30569;51.252;9.830;2023-04-24T02:35:20;9.90;99.90
44833;DHT22;30569;51.252;9.830;2023-04-24T02:37:46;9.70;99.90
44833;DHT22;30569;51.252;9.830;2023-04-24T02:40:12;9.70;99.90
44833;DHT22;30569;51.252;9.830;2023-04-24T02:42:37;9.70;99.90
44833;DHT22;30569;51.252;9.830;2023-04-24T02:45:03;9.60;99.90
44833;DHT22;30569;51.252;9.830;2023-04-24T02:47:29;9.80;99.90
44833;DHT22;30569;51.252;9.830;2023-04-24T02:52:20;9.80;99.90
44833;DHT22;30569;51.252;9.830;2023-04-24T02:57:12;9.90;99.90
44833;DHT22;30569;51.252;9.830;2023-04-24T03:02:03;10.00;99.90
44833;DHT22;30569;51.252;9.830;2023-04-24T03:06:55;9.70;99.90
44833;DHT22;30569;51.252;9.830;2023-04-24T03:09:21;9.90;99.90
44833;DHT22;30569;51.252;9.830;2023-04-24T03:11:47;9.70;99.90
44833;DHT22;30569;51.252;9.830;2023-04-24T03:16:39;9.60;99.90
44833;DHT22;30569;51.252;9.830;2023-04-24T03:19:05;9.60;99.90
44833;DHT22;30569;51.252;9.830;2023-04-24T03:21:31;9.40;99.90
44833;DHT22;30569;51.252;9.830;2023-04-24T03:23:56;9.40;99.90
44833;DHT22;30569;51.252;9.830;2023-04-24T03:26:22;9.40;99.90
44833;DHT22;30569;51.252;9.830;2023-04-24T03:28:47;9.60;99.90
44833;DHT22;30569;51.252;9.830;2023-04-24T03:31:13;9.60;99.90
44833;DHT22;30569;51.252;9.830;2023-04-24T03:33:40;9.40;99.90
44833;DHT22;30569;51.252;9.830;2023-04-24T03:36:06;9.30;99.90
44833;DHT22;30569;51.252;9.830;2023-04-24T03:38:32;9.50;99.90
44833;DHT22;30569;51.252;9.830;2023-04-24T03:40:57;9.70;99.90
44833;DHT22;30569;51.252;9.830;2023-04-24T03:43:23;9.90;99.90
44833;DHT22;30569;51.252;9.830;2023-04-24T03:45:48;9.90;99.90
44833;DHT22;30569;51.252;9.830;2023-04-24T03:48:14;9.60;99.90
44833;DHT22;30569;51.252;9.830;2023-04-24T03:50:40;10.20;99.90
44833;DHT22;30569;51.252;9.830;2023-04-24T03:53:05;10.30;99.90
44833;DHT22;30569;51.252;9.830;2023-04-24T03:55:31;10.80;99.90
44833;DHT22;30569;51.252;9.830;2023-04-24T04:00:22;10.10;99.90
44833;DHT22;30569;51.252;9.830;2023-04-24T04:02:48;9.70;99.90
44833;DHT22;30569;51.252;9.830;2023-04-24T04:05:13;9.80;99.90
44833;DHT22;30569;51.252;9.830;2023-04-24T04:07:39;9.70;99.90
44833;DHT22;30569;51.252;9.830;2023-04-24T04:10:05;9.70;99.90
44833;DHT22;30569;51.252;9.830;2023-04-24T04:12:32;9.90;99.90
44833;DHT22;30569;51.252;9.830;2023-04-24T04:14:57;9.80;99.90
44833;DHT22;30569;51.252;9.830;2023-04-24T04:17:23;9.90;99.90
44833;DHT22;30569;51.252;9.830;2023-04-24T04:24:41;10.00;99.90
44833;DHT22;30569;51.252;9.830;2023-04-24T04:27:07;9.80;99.90
44833;DHT22;30569;51.252;9.830;2023-04-24T04:36:52;9.90;99.90
44833;DHT22;30569;51.252;9.830;2023-04-24T05:08:36;9.70;99.90
44833;DHT22;30569;51.252;9.830;2023-04-24T05:13:27;9.90;99.90
44833;DHT22;30569;51.252;9.830;2023-04-24T05:15:53;10.10;99.90
44833;DHT22;30569;51.252;9.830;2023-04-24T05:30:32;10.10;99.90
44833;DHT22;30569;51.252;9.830;2023-04-24T05:45:08;10.10;99.90
44833;DHT22;30569;51.252;9.830;2023-04-24T06:04:36;10.40;99.90
44833;DHT22;30569;51.252;9.830;2023-04-24T06:26:30;10.70;99.90
44833;DHT22;30569;51.252;9.830;2023-04-24T06:33:49;10.70;99.90
44833;DHT22;30569;51.252;9.830;2023-04-24T06:36:15;10.60;99.90
44833;DHT22;30569;51.252;9.830;2023-04-24T06:58:11;10.30;99.90
44833;DHT22;30569;51.252;9.830;2023-04-24T07:03:04;10.60;99.90
44833;DHT22;30569;51.252;9.830;2023-04-24T07:10:25;10.80;99.90
44833;DHT22;30569;51.252;9.830;2023-04-24T07:15:21;11.60;99.90
44833;DHT22;30569;51.252;9.830;2023-04-24T07:25:06;11.90;99.90
44833;DHT22;30569;51.252;9.830;2023-04-24T07:27:33;11.80;99.90
44833;DHT22;30569;51.252;9.830;2023-04-24T07:29:59;12.10;99.90
44833;DHT22;30569;51.252;9.830;2023-04-24T07:34:51;12.10;99.90
44833;DHT22;30569;51.252;9.830;2023-04-24T07:56:49;11.90;99.90
44833;DHT22;30569;51.252;9.830;2023-04-24T08:06:33;12.20;99.90
44833;DHT22;30569;51.252;9.830;2023-04-24T08:08:59;12.30;99.90
44833;DHT22;30569;51.252;9.830;2023-04-24T08:11:26;12.90;99.90
44833;DHT22;30569;51.252;9.830;2023-04-24T08:13:51;13.60;99.30
44833;DHT22;30569;51.252;9.830;2023-04-24T08:16:17;14.20;97.80
44833;DHT22;30569;51.252;9.830;2023-04-24T08:18:43;14.30;96.50
44833;DHT22;30569;51.252;9.830;2023-04-24T08:23:34;14.00;95.90
44833;DHT22;30569;51.252;9.830;2023-04-24T08:28:26;14.20;92.90
44833;DHT22;30569;51.252;9.830;2023-04-24T08:33:21;16.40;90.30
44833;DHT22;30569;51.252;9.830;2023-04-24T08:45:32;12.60;95.90
44833;DHT22;30569;51.252;9.830;2023-04-24T08:57:46;16.40;88.50
44833;DHT22;30569;51.252;9.830;2023-04-24T09:00:15;14.80;88.70
44833;DHT22;30569;51.252;9.830;2023-04-24T09:02:42;14.60;91.20
44833;DHT22;30569;51.252;9.830;2023-04-24T09:05:12;13.60;93.60
44833;DHT22;30569;51.252;9.830;2023-04-24T09:07:39;13.30;94.10
44833;DHT22;30569;51.252;9.830;2023-04-24T09:10:07;13.00;94.30
44833;DHT22;30569;51.252;9.830;2023-04-24T09:12:34;12.70;95.40
44833;DHT22;30569;51.252;9.830;2023-04-24T09:15:01;12.90;95.50
44833;DHT22;30569;51.252;9.830;2023-04-24T09:17:27;12.20;95.20
44833;DHT22;30569;51.252;9.830;2023-04-24T09:19:53;11.70;97.30
44833;DHT22;30569;51.252;9.830;2023-04-24T09:22:20;11.70;98.50
44833;DHT22;30569;51.252;9.830;2023-04-24T09:27:12;11.10;98.40
44833;DHT22;30569;51.252;9.830;2023-04-24T09:29:38;10.80;99.10
44833;DHT22;30569;51.252;9.830;2023-04-24T09:32:21;11.00;99.40
44833;DHT22;30569;51.252;9.830;2023-04-24T09:34:47;11.10;99.80
44833;DHT22;30569;51.252;9.830;2023-04-24T09:37:27;11.20;99.20
44833;DHT22;30569;51.252;9.830;2023-04-24T09:42:38;11.70;97.30
44833;DHT22;30569;51.252;9.830;2023-04-24T09:45:11;11.70;98.70
44833;DHT22;30569;51.252;9.830;2023-04-24T09:47:38;11.50;97.40
44833;DHT22;30569;51.252;9.830;2023-04-24T09:50:11;11.10;97.70
44833;DHT22;30569;51.252;9.830;2023-04-24T09:52:45;11.10;99.70
44833;DHT22;30569;51.252;9.830;2023-04-24T09:55:19;11.10;99.30
44833;DHT22;30569;51.252;9.830;2023-04-24T09:57:53;11.30;99.90
44833;DHT22;30569;51.252;9.830;2023-04-24T10:00:30;11.30;99.00
44833;DHT22;30569;51.252;9.830;2023-04-24T10:03:04;11.60;99.50
44833;DHT22;30569;51.252;9.830;2023-04-24T10:05:37;11.60;99.70
44833;DHT22;30569;51.252;9.830;2023-04-24T10:08:04;12.20;98.80
44833;DHT22;30569;51.252;9.830;2023-04-24T10:10:32;12.10;97.50
44833;DHT22;30569;51.252;9.830;2023-04-24T10:12:59;11.40;99.10
44833;DHT22;30569;51.252;9.830;2023-04-24T10:15:26;11.30;99.30
44833;DHT22;30569;51.252;9.830;2023-04-24T10:17:52;11.10;99.00
44833;DHT22;30569;51.252;9.830;2023-04-24T10:20:26;10.80;99.30
44833;DHT22;30569;51.252;9.830;2023-04-24T10:22:53;11.00;99.90
44833;DHT22;30569;51.252;9.830;2023-04-24T10:25:21;11.00;99.90
44833;DHT22;30569;51.252;9.830;2023-04-24T10:27:48;11.00;99.10
44833;DHT22;30569;51.252;9.830;2023-04-24T10:30:15;11.30;99.90
44833;DHT22;30569;51.252;9.830;2023-04-24T10:32:41;11.40;99.10
44833;DHT22;30569;51.252;9.830;2023-04-24T10:35:07;11.20;99.10
44833;DHT22;30569;51.252;9.830;2023-04-24T10:38:04;11.50;98.90
44833;DHT22;30569;51.252;9.830;2023-04-24T10:40:32;11.20;99.00
44833;DHT22;30569;51.252;9.830;2023-04-24T10:42:59;11.00;99.60
44833;DHT22;30569;51.252;9.830;2023-04-24T10:45:25;11.10;99.80
44833;DHT22;30569;51.252;9.830;2023-04-24T10:47:52;11.50;99.90
44833;DHT22;30569;51.252;9.830;2023-04-24T10:50:18;11.70;99.90
44833;DHT22;30569;51.252;9.830;2023-04-24T10:52:45;12.10;98.40
44833;DHT22;30569;51.252;9.830;2023-04-24T10:55:13;13.60;99.90
44833;DHT22;30569;51.252;9.830;2023-04-24T11:00:20;11.90;99.60
44833;DHT22;30569;51.252;9.830;2023-04-24T11:02:47;12.10;99.60
44833;DHT22;30569;51.252;9.830;2023-04-24T11:05:18;12.10;99.90
44833;DHT22;30569;51.252;9.830;2023-04-24T11:08:10;11.40;99.90
44833;DHT22;30569;51.252;9.830;2023-04-24T11:10:56;11.60;99.90
44833;DHT22;30569;51.252;9.830;2023-04-24T11:13:24;11.40;99.90
44833;DHT22;30569;51.252;9.830;2023-04-24T11:16:52;11.00;99.90
44833;DHT22;30569;51.252;9.830;2023-04-24T11:21:39;10.60;99.90
44833;DHT22;30569;51.252;9.830;2023-04-24T11:27:14;9.80;99.90
44833;DHT22;30569;51.252;9.830;2023-04-24T11:29:48;10.00;99.90
44833;DHT22;30569;51.252;9.830;2023-04-24T11:37:45;10.30;99.90
44833;DHT22;30569;51.252;9.830;2023-04-24T11:40:12;10.30;99.90
44833;DHT22;30569;51.252;9.830;2023-04-24T11:42:46;10.30;99.90
44833;DHT22;30569;51.252;9.830;2023-04-24T11:45:16;10.70;99.90
44833;DHT22;30569;51.252;9.830;2023-04-24T11:47:42;11.00;99.90
44833;DHT22;30569;51.252;9.830;2023-04-24T11:50:14;11.40;99.90
44833;DHT22;30569;51.252;9.830;2023-04-24T11:52:44;10.80;99.90
44833;DHT22;30569;51.252;9.830;2023-04-24T11:57:46;11.40;99.90
44833;DHT22;30569;51.252;9.830;2023-04-24T12:00:17;11.60;99.90
44833;DHT22;30569;51.252;9.830;2023-04-24T12:05:26;11.80;99.90
44833;DHT22;30569;51.252;9.830;2023-04-24T12:07:52;11.40;99.90
44833;DHT22;30569;51.252;9.830;2023-04-24T12:10:29;11.60;99.90
44833;DHT22;30569;51.252;9.830;2023-04-24T12:12:56;11.60;99.90
44833;DHT22;30569;51.252;9.830;2023-04-24T12:15:22;11.70;99.90
44833;DHT22;30569;51.252;9.830;2023-04-24T12:17:51;12.70;99.90
44833;DHT22;30569;51.252;9.830;2023-04-24T12:22:53;11.40;99.90
44833;DHT22;30569;51.252;9.830;2023-04-24T12:25:27;11.40;99.90
44833;DHT22;30569;51.252;9.830;2023-04-24T12:27:55;11.00;99.90
44833;DHT22;30569;51.252;9.830;2023-04-24T12:30:25;10.90;99.90
44833;DHT22;30569;51.252;9.830;2023-04-24T12:32:51;11.10;99.90
44833;DHT22;30569;51.252;9.830;2023-04-24T12:35:21;11.20;99.90
44833;DHT22;30569;51.252;9.830;2023-04-24T12:42:48;11.50;99.90
44833;DHT22;30569;51.252;9.830;2023-04-24T12:45:15;11.00;99.90
44833;DHT22;30569;51.252;9.830;2023-04-24T12:47:41;10.60;99.90
44833;DHT22;30569;51.252;9.830;2023-04-24T12:50:08;10.60;99.90
44833;DHT22;30569;51.252;9.830;2023-04-24T12:52:36;10.50;99.90
44833;DHT22;30569;51.252;9.830;2023-04-24T12:55:03;10.60;99.90
44833;DHT22;30569;51.252;9.830;2023-04-24T12:57:30;11.00;99.90
44833;DHT22;30569;51.252;9.830;2023-04-24T12:59:57;11.10;99.90
44833;DHT22;30569;51.252;9.830;2023-04-24T13:02:24;11.30;99.90
44833;DHT22;30569;51.252;9.830;2023-04-24T13:04:50;10.30;99.90
44833;DHT22;30569;51.252;9.830;2023-04-24T13:12:09;10.90;99.90
44833;DHT22;30569;51.252;9.830;2023-04-24T13:17:01;11.50;99.90
44833;DHT22;30569;51.252;9.830;2023-04-24T13:21:55;11.40;99.90
44833;DHT22;30569;51.252;9.830;2023-04-24T13:26:50;11.40;99.90
44833;DHT22;30569;51.252;9.830;2023-04-24T13:51:10;11.30;99.90
44833;DHT22;30569;51.252;9.830;2023-04-24T14:13:06;11.10;99.90
44833;DHT22;30569;51.252;9.830;2023-04-24T14:22:49;10.60;99.90
44833;DHT22;30569;51.252;9.830;2023-04-24T14:27:41;11.20;99.90
44833;DHT22;30569;51.252;9.830;2023-04-24T14:30:07;10.90;99.90
44833;DHT22;30569;51.252;9.830;2023-04-24T14:56:54;10.60;99.90
44833;DHT22;30569;51.252;9.830;2023-04-24T15:16:25;11.20;99.90
44833;DHT22;30569;51.252;9.830;2023-04-24T15:18:52;10.70;99.90
44833;DHT22;30569;51.252;9.830;2023-04-24T15:23:44;10.80;99.90
44833;DHT22;30569;51.252;9.830;2023-04-24T15:31:01;10.80;99.90
44833;DHT22;30569;51.252;9.830;2023-04-24T15:40:45;10.70;99.90
44833;DHT22;30569;51.252;9.830;2023-04-24T15:43:11;10.80;99.90
44833;DHT22;30569;51.252;9.830;2023-04-24T15:45:36;10.50;99.90
44833;DHT22;30569;51.252;9.830;2023-04-24T15:48:02;10.60;99.90
44833;DHT22;30569;51.252;9.830;2023-04-24T15:50:28;10.80;99.90
44833;DHT22;30569;51.252;9.830;2023-04-24T15:52:54;10.70;99.90
44833;DHT22;30569;51.252;9.830;2023-04-24T15:55:20;10.80;99.90
44833;DHT22;30569;51.252;9.830;2023-04-24T16:00:11;11.40;99.90
44833;DHT22;30569;51.252;9.830;2023-04-24T16:09:57;11.10;99.90
44833;DHT22;30569;51.252;9.830;2023-04-24T16:12:23;11.10;99.90
44833;DHT22;30569;51.252;9.830;2023-04-24T16:24:37;10.40;99.90
44833;DHT22;30569;51.252;9.830;2023-04-24T16:29:30;10.50;99.90
44833;DHT22;30569;51.252;9.830;2023-04-24T16:39:13;10.70;99.50
44833;DHT22;30569;51.252;9.830;2023-04-24T16:41:39;10.60;99.90
44833;DHT22;30569;51.252;9.830;2023-04-24T16:44:05;10.50;99.90
44833;DHT22;30569;51.252;9.830;2023-04-24T16:46:31;10.40;99.60
44833;DHT22;30569;51.252;9.830;2023-04-24T16:48:57;10.30;99.90
44833;DHT22;30569;51.252;9.830;2023-04-24T16:51:22;10.20;99.40
44833;DHT22;30569;51.252;9.830;2023-04-24T17:01:06;10.40;99.90
44833;DHT22;30569;51.252;9.830;2023-04-24T17:06:06;10.40;99.10
44833;DHT22;30569;51.252;9.830;2023-04-24T17:15:50;10.10;99.00
44833;DHT22;30569;51.252;9.830;2023-04-24T17:25:36;9.80;99.50
44833;DHT22;30569;51.252;9.830;2023-04-24T17:35:20;10.10;98.80
44833;DHT22;30569;51.252;9.830;2023-04-24T17:37:45;10.30;99.20
44833;DHT22;30569;51.252;9.830;2023-04-24T17:40:11;9.90;99.30
44833;DHT22;30569;51.252;9.830;2023-04-24T17:42:37;10.10;98.60
44833;DHT22;30569;51.252;9.830;2023-04-24T17:45:06;9.90;98.40
44833;DHT22;30569;51.252;9.830;2023-04-24T17:47:31;10.00;98.40
44833;DHT22;30569;51.252;9.830;2023-04-24T17:49:57;9.90;97.70
44833;DHT22;30569;51.252;9.830;2023-04-24T17:52:23;9.70;98.80
44833;DHT22;30569;51.252;9.830;2023-04-24T17:54:48;9.80;99.00
44833;DHT22;30569;51.252;9.830;2023-04-24T17:57:14;9.50;99.00
44833;DHT22;30569;51.252;9.830;2023-04-24T17:59:40;9.10;99.10
44833;DHT22;30569;51.252;9.830;2023-04-24T18:02:05;8.90;99.80
44833;DHT22;30569;51.252;9.830;2023-04-24T18:04:31;9.10;99.90
44833;DHT22;30569;51.252;9.830;2023-04-24T18:06:57;9.40;99.60
44833;DHT22;30569;51.252;9.830;2023-04-24T18:09:22;9.80;99.90
44833;DHT22;30569;51.252;9.830;2023-04-24T18:16:40;9.30;98.60
44833;DHT22;30569;51.252;9.830;2023-04-24T18:21:32;9.30;99.20
44833;DHT22;30569;51.252;9.830;2023-04-24T18:31:17;9.20;99.90
44833;DHT22;30569;51.252;9.830;2023-04-24T18:33:42;9.30;99.90
44833;DHT22;30569;51.252;9.830;2023-04-24T18:36:08;9.20;99.50
44833;DHT22;30569;51.252;9.830;2023-04-24T18:38:33;9.10;99.70
44833;DHT22;30569;51.252;9.830;2023-04-24T18:41:01;9.50;98.70
44833;DHT22;30569;51.252;9.830;2023-04-24T18:43:26;9.50;99.00
44833;DHT22;30569;51.252;9.830;2023-04-24T18:45:52;9.30;99.90
44833;DHT22;30569;51.252;9.830;2023-04-24T18:48:18;8.90;99.90
44833;DHT22;30569;51.252;9.830;2023-04-24T18:50:43;8.80;99.90
44833;DHT22;30569;51.252;9.830;2023-04-24T18:53:09;8.70;99.90
44833;DHT22;30569;51.252;9.830;2023-04-24T18:55:37;8.70;99.90
44833;DHT22;30569;51.252;9.830;2023-04-24T18:58:02;8.80;99.90
44833;DHT22;30569;51.252;9.830;2023-04-24T19:00:28;8.90;99.90
44833;DHT22;30569;51.252;9.830;2023-04-24T19:02:54;8.90;99.90
44833;DHT22;30569;51.252;9.830;2023-04-24T19:05:19;9.00;99.90
44833;DHT22;30569;51.252;9.830;2023-04-24T19:07:45;8.90;99.90
44833;DHT22;30569;51.252;9.830;2023-04-24T19:10:10;8.70;99.90
44833;DHT22;30569;51.252;9.830;2023-04-24T19:12:37;8.70;99.90
44833;DHT22;30569;51.252;9.830;2023-04-24T19:15:03;8.70;99.90
44833;DHT22;30569;51.252;9.830;2023-04-24T19:17:29;8.70;99.90
44833;DHT22;30569;51.252;9.830;2023-04-24T19:19:56;8.90;99.90
44833;DHT22;30569;51.252;9.830;2023-04-24T19:22:22;8.90;99.90
44833;DHT22;30569;51.252;9.830;2023-04-24T19:29:39;9.20;99.90
44833;DHT22;30569;51.252;9.830;2023-04-24T19:32:08;9.20;99.90
44833;DHT22;30569;51.252;9.830;2023-04-24T19:34:33;9.20;99.90
44833;DHT22;30569;51.252;9.830;2023-04-24T19:36:59;8.90;99.90
44833;DHT22;30569;51.252;9.830;2023-04-24T19:39:25;9.30;99.50
44833;DHT22;30569;51.252;9.830;2023-04-24T19:41:50;9.30;99.80
44833;DHT22;30569;51.252;9.830;2023-04-24T19:44:16;9.10;99.90
44833;DHT22;30569;51.252;9.830;2023-04-24T19:46:42;8.80;99.90
44833;DHT22;30569;51.252;9.830;2023-04-24T19:49:08;8.70;99.90
44833;DHT22;30569;51.252;9.830;2023-04-24T19:51:33;8.60;99.90
44833;DHT22;30569;51.252;9.830;2023-04-24T19:54:00;8.30;99.90
44833;DHT22;30569;51.252;9.830;2023-04-24T19:56:25;8.20;99.90
44833;DHT22;30569;51.252;9.830;2023-04-24T19:58:51;8.20;99.90
44833;DHT22;30569;51.252;9.830;2023-04-24T20:01:17;8.10;99.90
44833;DHT22;30569;51.252;9.830;2023-04-24T20:03:42;8.10;99.90
44833;DHT22;30569;51.252;9.830;2023-04-24T20:06:08;8.20;99.90
44833;DHT22;30569;51.252;9.830;2023-04-24T20:08:34;8.20;99.90
44833;DHT22;30569;51.252;9.830;2023-04-24T20:11:03;8.00;99.90
44833;DHT22;30569;51.252;9.830;2023-04-24T20:13:29;7.80;99.90
44833;DHT22;30569;51.252;9.830;2023-04-24T20:15:56;7.90;99.90
44833;DHT22;30569;51.252;9.830;2023-04-24T20:18:21;7.70;99.90
44833;DHT22;30569;51.252;9.830;2023-04-24T20:20:47;7.80;99.90
44833;DHT22;30569;51.252;9.830;2023-04-24T20:23:13;7.60;99.90
44833;DHT22;30569;51.252;9.830;2023-04-24T20:25:38;7.50;99.90
44833;DHT22;30569;51.252;9.830;2023-04-24T20:28:04;7.10;99.90
44833;DHT22;30569;51.252;9.830;2023-04-24T20:30:30;7.00;99.90
44833;DHT22;30569;51.252;9.830;2023-04-24T20:32:56;7.00;99.90
44833;DHT22;30569;51.252;9.830;2023-04-24T20:35:21;7.00;99.90
44833;DHT22;30569;51.252;9.830;2023-04-24T20:37:47;7.10;99.90
44833;DHT22;30569;51.252;9.830;2023-04-24T20:40:12;6.80;99.90
44833;DHT22;30569;51.252;9.830;2023-04-24T20:42:38;6.70;99.90
44833;DHT22;30569;51.252;9.830;2023-04-24T20:45:04;6.60;99.90
44833;DHT22;30569;51.252;9.830;2023-04-24T20:47:30;6.60;99.90
44833;DHT22;30569;51.252;9.830;2023-04-24T20:49:56;6.30;99.90
44833;DHT22;30569;51.252;9.830;2023-04-24T20:52:22;6.00;99.90
44833;DHT22;30569;51.252;9.830;2023-04-24T20:54:47;6.00;99.90
44833;DHT22;30569;51.252;9.830;2023-04-24T20:57:13;6.10;99.90
44833;DHT22;30569;51.252;9.830;2023-04-24T20:59:39;5.70;99.90
44833;DHT22;30569;51.252;9.830;2023-04-24T21:02:05;5.20;99.90
44833;DHT22;30569;51.252;9.830;2023-04-24T21:04:31;5.20;99.90
44833;DHT22;30569;51.252;9.830;2023-04-24T21:06:59;5.00;99.90
44833;DHT22;30569;51.252;9.830;2023-04-24T21:09:24;5.10;99.90
44833;DHT22;30569;51.252;9.830;2023-04-24T21:11:50;5.00;99.90
44833;DHT22;30569;51.252;9.830;2023-04-24T21:14:16;5.30;99.90
44833;DHT22;30569;51.252;9.830;2023-04-24T21:16:41;5.60;99.90
44833;DHT22;30569;51.252;9.830;2023-04-24T21:19:07;5.30;99.90
44833;DHT22;30569;51.252;9.830;2023-04-24T21:21:32;5.40;99.90
44833;DHT22;30569;51.252;9.830;2023-04-24T21:23:58;5.50;99.90
44833;DHT22;30569;51.252;9.830;2023-04-24T21:26:25;5.50;99.90
44833;DHT22;30569;51.252;9.830;2023-04-24T21:28:51;5.50;99.90
44833;DHT22;30569;51.252;9.830;2023-04-24T21:33:42;5.60;99.90
44833;DHT22;30569;51.252;9.830;2023-04-24T21:36:08;5.70;99.90
44833;DHT22;30569;51.252;9.830;2023-04-24T21:38:34;5.70;99.90
44833;DHT22;30569;51.252;9.830;2023-04-24T21:40:59;5.20;99.90
44833;DHT22;30569;51.252;9.830;2023-04-24T21:43:25;5.40;99.90
44833;DHT22;30569;51.252;9.830;2023-04-24T21:45:50;5.30;99.90
44833;DHT22;30569;51.252;9.830;2023-04-24T21:48:16;5.40;99.90
44833;DHT22;30569;51.252;9.830;2023-04-24T21:50:42;5.90;99.90
44833;DHT22;30569;51.252;9.830;2023-04-24T21:53:07;6.00;99.90
44833;DHT22;30569;51.252;9.830;2023-04-24T21:55:33;5.70;99.90
44833;DHT22;30569;51.252;9.830;2023-04-24T21:57:59;6.30;99.90
44833;DHT22;30569;51.252;9.830;2023-04-24T22:00:24;6.30;99.90
44833;DHT22;30569;51.252;9.830;2023-04-24T22:02:50;6.40;99.90
44833;DHT22;30569;51.252;9.830;2023-04-24T22:05:16;6.50;99.90
44833;DHT22;30569;51.252;9.830;2023-04-24T22:07:42;6.60;99.90
44833;DHT22;30569;51.252;9.830;2023-04-24T22:10:13;6.70;99.90
44833;DHT22;30569;51.252;9.830;2023-04-24T22:12:40;6.70;99.90
44833;DHT22;30569;51.252;9.830;2023-04-24T22:15:07;6.50;99.90
44833;DHT22;30569;51.252;9.830;2023-04-24T22:17:33;6.10;99.90
44833;DHT22;30569;51.252;9.830;2023-04-24T22:20:00;6.20;99.90
44833;DHT22;30569;51.252;9.830;2023-04-24T22:22:26;6.20;99.90
44833;DHT22;30569;51.252;9.830;2023-04-24T22:24:52;5.90;99.90
44833;DHT22;30569;51.252;9.830;2023-04-24T22:27:18;6.30;99.90
44833;DHT22;30569;51.252;9.830;2023-04-24T22:29:43;6.40;99.90
44833;DHT22;30569;51.252;9.830;2023-04-24T22:32:09;6.30;99.90
44833;DHT22;30569;51.252;9.830;2023-04-24T22:34:34;6.10;99.90
44833;DHT22;30569;51.252;9.830;2023-04-24T22:37:00;6.30;99.90
44833;DHT22;30569;51.252;9.830;2023-04-24T22:39:26;6.60;99.90
44833;DHT22;30569;51.252;9.830;2023-04-24T22:41:52;6.50;99.90
44833;DHT22;30569;51.252;9.830;2023-04-24T22:44:17;6.60;99.90
44833;DHT22;30569;51.252;9.830;2023-04-24T22:46:43;6.10;99.90
44833;DHT22;30569;51.252;9.830;2023-04-24T22:49:09;6.00;99.90
44833;DHT22;30569;51.252;9.830;2023-04-24T22:51:35;5.70;99.90
44833;DHT22;30569;51.252;9.830;2023-04-24T22:54:03;5.70;99.90
44833;DHT22;30569;51.252;9.830;2023-04-24T22:56:28;5.80;99.90
44833;DHT22;30569;51.252;9.830;2023-04-24T22:58:54;5.60;99.90
44833;DHT22;30569;51.252;9.830;2023-04-24T23:01:20;5.50;99.90
44833;DHT22;30569;51.252;9.830;2023-04-24T23:03:45;5.60;99.90
44833;DHT22;30569;51.252;9.830;2023-04-24T23:06:12;5.30;99.90
44833;DHT22;30569;51.252;9.830;2023-04-24T23:08:37;5.30;99.90
44833;DHT22;30569;51.252;9.830;2023-04-24T23:11:03;5.10;99.90
44833;DHT22;30569;51.252;9.830;2023-04-24T23:13:28;5.00;99.90
44833;DHT22;30569;51.252;9.830;2023-04-24T23:15:54;5.20;99.90
44833;DHT22;30569;51.252;9.830;2023-04-24T23:18:19;4.90;99.90
44833;DHT22;30569;51.252;9.830;2023-04-24T23:20:45;4.50;99.90
44833;DHT22;30569;51.252;9.830;2023-04-24T23:23:11;4.80;99.90
44833;DHT22;30569;51.252;9.830;2023-04-24T23:25:37;4.60;99.90
44833;DHT22;30569;51.252;9.830;2023-04-24T23:28:02;5.20;99.90
44833;DHT22;30569;51.252;9.830;2023-04-24T23:30:28;4.80;99.90
44833;DHT22;30569;51.252;9.830;2023-04-24T23:32:54;4.90;99.90
44833;DHT22;30569;51.252;9.830;2023-04-24T23:35:19;4.90;99.90
44833;DHT22;30569;51.252;9.830;2023-04-24T23:37:45;4.90;99.90
44833;DHT22;30569;51.252;9.830;2023-04-24T23:40:10;4.30;99.90
44833;DHT22;30569;51.252;9.830;2023-04-24T23:42:36;4.60;99.90